Mackinaw City, MI (49701)

1:54 PM EDT on October 21, 2014 (GMT -0400)
KMIMACKI2 | Change Station
CLOSE
Current Station
Personal Weather Station
Location: Mackinac Island, MI
Elevation: 594 ft
Nearby Weather Stations

Elev 594 ft 45.85 °N, 84.62 °W | Updated 3 minutes ago

Clear
Clear
45.3 °F
Feels Like 41 °F
N
9.0
Wind Variable Wind from NE

Today
High -- | Low -- °F
--% Chance of Precip.
Yesterday
High -- | Low -- °F
Precip. -- in
8:03 AM 6:42 PM
Waning Crescent, 5% visible
Pressure 30.21 in
Visibility 10.0 miles
Clouds Clear
Windchill 41 °F
Dew Point 33 °F
Humidity 62%
Rainfall 0.00 in
Snow Depth Not available.
UV 4 out of 12
Pollen .80 out of 12
Ozone Good
PM2.5 Good
Flu Activity Sporadic
METAR KMCD 211739Z AUTO 04006KT 10SM CLR 08/M01 A3021 RMK AO2 T00751014

More Conditions Fewer Conditions

Pressure 30.21 in
Visibility 10.0 miles
Clouds Clear
Windchill 41 °F
Dew Point 33 °F
Humidity 62%
Rainfall 0.00 in
Snow Depth Not available.
UV 4 out of 12
Pollen .80 out of 12
Ozone Good
PM2.5 Good
Flu Activity Sporadic
METAR KMCD 211739Z AUTO 04006KT 10SM CLR 08/M01 A3021 RMK AO2 T00751014

More Conditions Fewer Conditions

Nowcast | as of 1:00 PM EDT on October 21, 2014

At 2 PM...partly cloudy. Temperature 47. Northeast winds 8 mph. At 4 PM...partly cloudy. Temperature 48. Northeast winds 8 mph. At 6 PM...partly cloudy. Temperature 46. Northeast winds 6 mph. At 8 PM...mostly clear. Temperature 41. Northeast winds 5 mph.

×

10-Day Weather Forecast

Almanac

Astronomy

Oct. 21, 2014 Rise Set
Actual Time 8:03 AM EDT 6:42 PM EDT
Civil Twilight 7:33 AM EDT 7:13 PM EDT
Nautical Twilight 6:58 AM EDT 7:47 PM EDT
Astronomical Twilight 6:24 AM EDT 8:22 PM EDT
Moon 5:40 AM EDT 5:41 PM EDT
Length of Visible Light 11h 39m
Length of Day
10h 39m
Tomorrow will be 3m 2s shorter.
Waning Crescent, 5% of the Moon is Illuminated
Today
Waning Crescent
Oct 23
New
Oct 30
First Quarter
Nov 6
Full
Nov 14
Last Quarter

Today's Extremes

State Highs State Lows

Community

WunderPhotos

Upload Photos

1,763,733 photos uploaded!

Nearby

Air Quality

  Air Quality AQ Index Pollutant
Yesterday Good
PM2.5
Yesterday Good
OZONE
Current Good
OZONE
Current Good
PM2.5
Tuesday Good
PM2.5
Wednesday Good
PM2.5
Thursday Good
PM2.5
Friday Good
PM2.5
Saturday Good
PM2.5

Snow Depth

Station Depth Elevation
No new snow has been reported.

Earthquake Activity

City Distance Mag. Time & Date
No recent earthquake activity has been reported nearby.
Minimum magnitude displayed is 2.5.

Coastal Water Temperatures

Place Temperature
Mackinaw City, MI 53.1 °F
Rock Cut, MI 48.9 °F
West Neebish, MI 53.1 °F
Little Rapids, MI 52.0 °F
S W Pier, MI 52.0 °F

Nearby Weather Stations